Wheaton NDB, MN

6:44 AM CDT on September 26, 2017 (GMT -0500)
Wheaton Municipal

Weather History for KETH - January, 2014

Change the Weather History Date:

Tuesday, January 28, 2014

  Actual Average Record
Temperature  
Mean Temperature -2 °F -  
Max Temperature 5 °F 20 °F 49 °F (1989)
Min Temperature -9 °F 1 °F -26 °F (1951)
Degree Days  
Heating Degree Days 67    
Moisture  
Dew Point -12 °F    
Average Humidity 66    
Maximum Humidity 77    
Minimum Humidity 56    
Precipitation  
Precipitation 0.00 in - - ()
Sea Level Pressure  
Sea Level Pressure 30.26 in    
Wind  
Wind Speed 9 mph (West)    
Max Wind Speed 14 mph    
Max Gust Speed 20 mph    
Visibility 10 miles    
Events      
Averages and records for this station are not official NWS values.
T = Trace of Precipitation, MM = Missing Value Source: NWS Daily Summary

Daily Weather History Graph

Daily Weather History Graph

Search for Another Location

Airport or City:

Trip Planner

Search our weather history database for the weather conditions in past years. The results will help you decide how hot, cold, wet, or windy it might be!

Date:

Astronomy

Jan. 28, 2014 Rise Set
Actual Time 7:52 AM CST 5:26 PM CST
Civil Twilight 7:20 AM CST 5:58 PM CST
Nautical Twilight 6:44 AM CST 6:34 PM CST
Astronomical Twilight 6:09 AM CST 7:09 PM CST
Moon 5:37 AM CST (1/28) 3:16 PM CST (1/28)
Length of Visible Light 10h 38m
Length of Day
9h 34m
Waning Crescent, 7% of the Moon is Illuminated
Jan 28
Waning Crescent
Jan 30
New
Feb 6
First Quarter
Feb 14
Full
Feb 22
Last Quarter

Hourly Weather History & Observations

Time (CST) Temp. Windchill Dew Point Humidity Pressure Visibility Wind Dir Wind Speed Gust Speed Precip Events Conditions
12:14 AM -7.6 °F -23.4 °F -14.8 °F 71% 30.38 in 10.0 mi West 8.1 mph - N/A   Clear
12:34 AM -7.6 °F -24.6 °F -14.8 °F 71% 30.38 in 10.0 mi West 9.2 mph - N/A   Clear
12:54 AM -7.6 °F -24.6 °F -14.8 °F 71% 30.37 in 10.0 mi WNW 9.2 mph - N/A   Clear
1:14 AM -7.6 °F -26.6 °F -14.8 °F 71% 30.37 in 10.0 mi WNW 11.5 mph 16.1 mph N/A   Clear
1:34 AM -7.6 °F -26.6 °F -14.8 °F 71% 30.37 in 10.0 mi WNW 11.5 mph - N/A   Clear
1:54 AM -7.6 °F -25.7 °F -14.8 °F 71% 30.37 in 10.0 mi WNW 10.4 mph - N/A   Clear
2:14 AM -7.6 °F -25.7 °F -14.8 °F 71% 30.37 in 10.0 mi WNW 10.4 mph - N/A   Clear
2:34 AM -7.6 °F -26.6 °F -14.8 °F 71% 30.37 in 10.0 mi West 11.5 mph - N/A   Clear
2:54 AM -7.6 °F -25.7 °F -14.8 °F 71% 30.37 in 10.0 mi West 10.4 mph - N/A   Clear
3:14 AM -7.6 °F -25.7 °F -14.8 °F 71% 30.36 in 10.0 mi West 10.4 mph - N/A   Clear
3:34 AM -9.4 °F -27.9 °F -14.8 °F 77% 30.36 in 10.0 mi West 10.4 mph - N/A   Clear
3:54 AM -9.4 °F -27.9 °F -16.6 °F 71% 30.36 in 10.0 mi West 10.4 mph - N/A   Clear
4:14 AM -9.4 °F -26.8 °F -16.6 °F 71% 30.36 in 10.0 mi West 9.2 mph - N/A   Clear
4:34 AM -9.4 °F -25.6 °F -16.6 °F 71% 30.36 in 10.0 mi West 8.1 mph - N/A   Clear
4:54 AM -9.4 °F -26.8 °F -16.6 °F 71% 30.36 in 10.0 mi West 9.2 mph - N/A   Clear
5:14 AM -9.4 °F -26.8 °F -16.6 °F 71% 30.36 in 10.0 mi West 9.2 mph - N/A   Clear
5:34 AM -9.4 °F -26.8 °F -16.6 °F 71% 30.35 in 10.0 mi West 9.2 mph - N/A   Clear
5:52 AM -9.4 °F -26.8 °F -16.6 °F 71% 30.35 in 10.0 mi West 9.2 mph - N/A   Clear
6:54 AM -9.4 °F -26.8 °F -16.6 °F 71% 30.35 in 10.0 mi West 9.2 mph - N/A   Clear
7:13 AM -9.4 °F -25.6 °F -16.6 °F 71% 30.35 in 10.0 mi West 8.1 mph - N/A   Clear
7:54 AM -9.4 °F -22.7 °F -16.6 °F 71% 30.34 in 10.0 mi West 5.8 mph - N/A   Clear
8:14 AM -9.4 °F -22.7 °F -16.6 °F 71% 30.33 in 10.0 mi West 5.8 mph - N/A   Clear
8:34 AM -9.4 °F -22.7 °F -16.6 °F 71% 30.33 in 10.0 mi West 5.8 mph - N/A   Clear
8:54 AM -9.4 °F -22.7 °F -16.6 °F 71% 30.33 in 10.0 mi West 5.8 mph - N/A   Clear
9:14 AM -7.6 °F -24.6 °F -16.6 °F 65% 30.33 in 10.0 mi West 9.2 mph - N/A   Clear
9:34 AM -7.6 °F -22.1 °F -14.8 °F 71% 30.33 in 10.0 mi West 6.9 mph - N/A   Clear
9:54 AM -5.8 °F -24.4 °F -14.8 °F 65% 30.32 in 10.0 mi West 11.5 mph - N/A   Clear
10:14 AM -5.8 °F -24.4 °F -14.8 °F 65% 30.32 in 10.0 mi West 11.5 mph - N/A   Clear
10:34 AM -4.0 °F -21.2 °F -14.8 °F 60% 30.31 in 10.0 mi West 10.4 mph - N/A   Clear
10:54 AM -4.0 °F -23.7 °F -14.8 °F 60% 30.32 in 10.0 mi West 13.8 mph - N/A   Clear
11:14 AM -2.2 °F -19.9 °F -13.0 °F 60% 30.31 in 10.0 mi West 11.5 mph 17.3 mph N/A   Clear
11:34 AM -2.2 °F -18.9 °F -13.0 °F 60% 30.30 in 10.0 mi West 10.4 mph 18.4 mph N/A   Clear
11:54 AM -0.4 °F -19.2 °F -11.2 °F 60% 30.29 in 10.0 mi West 13.8 mph - N/A   Clear
12:14 PM -0.4 °F -19.2 °F -11.2 °F 60% 30.29 in 10.0 mi West 13.8 mph 19.6 mph N/A   Clear
12:34 PM -0.4 °F -17.6 °F -11.2 °F 60% 30.28 in 10.0 mi West 11.5 mph 18.4 mph N/A   Clear
12:54 PM 1.4 °F -16.1 °F -11.2 °F 56% 30.27 in 10.0 mi West 12.7 mph 16.1 mph N/A   Clear
1:14 PM 1.4 °F -16.9 °F -11.2 °F 56% 30.26 in 10.0 mi West 13.8 mph - N/A   Clear
1:34 PM 1.4 °F -14.5 °F -9.4 °F 61% 30.25 in 10.0 mi West 10.4 mph - N/A   Clear
1:54 PM 3.2 °F -12.2 °F -9.4 °F 56% 30.24 in 10.0 mi West 10.4 mph - N/A   Clear
2:14 PM 3.2 °F -12.2 °F -7.6 °F 61% 30.24 in 10.0 mi West 10.4 mph - N/A   Clear
2:34 PM 3.2 °F -13.1 °F -7.6 °F 61% 30.23 in 10.0 mi West 11.5 mph - N/A   Clear
2:54 PM 3.2 °F -13.9 °F -7.6 °F 61% 30.22 in 10.0 mi West 12.7 mph 17.3 mph N/A   Clear
3:14 PM 3.2 °F -13.1 °F -7.6 °F 61% 30.21 in 10.0 mi West 11.5 mph 17.3 mph N/A   Clear
3:34 PM 5.0 °F -9.1 °F -7.6 °F 56% 30.22 in 10.0 mi West 9.2 mph - N/A   Clear
3:54 PM 5.0 °F -9.1 °F -7.6 °F 56% 30.22 in 10.0 mi West 9.2 mph - N/A   Clear
4:08 PM 5.0 °F -10.0 °F -7.6 °F 56% 30.21 in 10.0 mi West 10.4 mph 16.1 mph N/A   Clear
4:30 PM 5.0 °F -11.6 °F -7.6 °F 56% 30.20 in 10.0 mi West 12.7 mph 16.1 mph N/A   Clear
4:54 PM 5.0 °F -9.1 °F -7.6 °F 56% 30.20 in 10.0 mi West 9.2 mph - N/A   Clear
5:02 PM 5.0 °F -9.1 °F -7.6 °F 56% 30.20 in 10.0 mi West 9.2 mph - N/A   Clear
5:55 PM 1.4 °F -13.5 °F -7.6 °F 66% 30.18 in 10.0 mi WSW 9.2 mph - N/A   Clear
6:41 PM 1.4 °F -11.3 °F -7.6 °F 66% 30.17 in 10.0 mi WSW 6.9 mph - N/A   Clear
7:13 PM -0.4 °F -13.4 °F -7.6 °F 72% 30.16 in 10.0 mi WSW 6.9 mph - N/A   Clear
7:34 PM -0.4 °F -13.4 °F -7.6 °F 72% 30.16 in 10.0 mi WSW 6.9 mph - N/A   Clear
7:54 PM -0.4 °F -13.4 °F -7.6 °F 72% 30.14 in 10.0 mi WSW 6.9 mph - N/A   Clear
8:14 PM -0.4 °F -14.7 °F -9.4 °F 66% 30.13 in 10.0 mi WSW 8.1 mph - N/A   Clear
8:34 PM -0.4 °F -14.7 °F -9.4 °F 66% 30.12 in 10.0 mi SW 8.1 mph - N/A   Clear
8:54 PM -0.4 °F -12.0 °F -9.4 °F 66% 30.12 in 10.0 mi SW 5.8 mph - N/A   Clear
9:01 PM -0.4 °F -13.4 °F -9.4 °F 66% 30.11 in 10.0 mi WSW 6.9 mph - N/A   Clear
10:14 PM -0.4 °F -13.4 °F -9.4 °F 66% 30.09 in 10.0 mi SW 6.9 mph - N/A   Clear
10:34 PM -0.4 °F -14.7 °F -7.6 °F 72% 30.07 in 10.0 mi SW 8.1 mph - N/A   Clear
10:54 PM 1.4 °F -14.5 °F -7.6 °F 66% 30.07 in 10.0 mi WSW 10.4 mph - N/A   Clear
11:14 PM 1.4 °F -11.3 °F -7.6 °F 66% 30.07 in 10.0 mi WSW 6.9 mph - N/A   Clear
11:34 PM -0.4 °F -13.4 °F -7.6 °F 72% 30.06 in 10.0 mi SW 6.9 mph - N/A   Clear
11:54 PM 1.4 °F -9.9 °F -7.6 °F 66% 30.05 in 10.0 mi SW 5.8 mph - N/A   Clear